Time;durP1;ratioP1;P1;durP2;ratioP2;P2;SDS_P1;SDS_P2;PMS_P1;PMS_P2;Temp;Humidity;BMP_temperature;BMP_pressure;BME280_temperature;BME280_humidity;BME280_pressure;Samples;Min_cycle;Max_cycle;Signal;HPM_P1;HPM_P2
2021/12/13 00:02:27;;;;;;;2.87;2.03;;;;;;;;;;5074720;28;20205;-95
2021/12/13 00:05:01;;;;;;;2.00;1.80;;;;;;;;;;5075287;28;20246;-96
2021/12/13 00:07:31;;;;;;;1.60;1.50;;;;;;;;;;5075644;28;20208;-96
2021/12/13 00:10:01;;;;;;;1.40;1.30;;;;;;;;;;5076614;28;20646;-96
2021/12/13 00:12:33;;;;;;;1.33;1.13;;;;;;;;;;5074841;28;20213;-96
2021/12/13 00:15:05;;;;;;;1.80;1.70;;;;;;;;;;5075154;28;20555;-96
2021/12/13 00:17:39;;;;;;;1.57;1.47;;;;;;;;;;5074823;28;20216;-96
2021/12/13 00:20:12;;;;;;;3.43;1.60;;;;;;;;;;5075197;28;20276;-96
2021/12/13 00:22:43;;;;;;;2.13;1.80;;;;;;;;;;5075128;28;20212;-96
2021/12/13 00:25:15;;;;;;;1.60;1.50;;;;;;;;;;5074940;28;20201;-96
2021/12/13 00:27:46;;;;;;;3.20;2.10;;;;;;;;;;5074454;28;20671;-95
2021/12/13 00:30:19;;;;;;;1.73;1.63;;;;;;;;;;5074453;28;20201;-96
2021/12/13 00:32:54;;;;;;;1.40;1.30;;;;;;;;;;5074897;28;20580;-96
2021/12/13 00:35:25;;;;;;;1.57;1.47;;;;;;;;;;5074192;28;20208;-96
2021/12/13 00:37:58;;;;;;;1.73;1.63;;;;;;;;;;5074821;28;20280;-96
2021/12/13 00:40:28;;;;;;;1.53;1.43;;;;;;;;;;5075039;28;20711;-96
2021/12/13 00:42:59;;;;;;;2.57;1.97;;;;;;;;;;5074152;28;20233;-96
2021/12/13 00:45:32;;;;;;;3.00;1.40;;;;;;;;;;5074738;28;20270;-96
2021/12/13 00:48:02;;;;;;;4.70;1.43;;;;;;;;;;5075027;28;20227;-96
2021/12/13 00:50:37;;;;;;;1.60;1.50;;;;;;;;;;5075155;28;20288;-96
2021/12/13 00:53:05;;;;;;;1.43;1.30;;;;;;;;;;5073857;28;20197;-96
2021/12/13 00:55:34;;;;;;;2.00;1.73;;;;;;;;;;5075062;28;20216;-96
2021/12/13 00:58:11;;;;;;;1.33;1.23;;;;;;;;;;5074924;28;20278;-96
2021/12/13 01:00:43;;;;;;;1.50;1.40;;;;;;;;;;5075001;28;20231;-96
2021/12/13 01:03:14;;;;;;;1.50;1.40;;;;;;;;;;5075988;28;20277;-96
2021/12/13 01:05:48;;;;;;;1.70;1.60;;;;;;;;;;5074082;28;20695;-95
2021/12/13 01:08:33;;;;;;;1.80;1.70;;;;;;;;;;5074780;28;20205;-96
2021/12/13 01:11:33;;;;;;;2.23;1.60;;;;;;;;;;5074419;28;20228;-96
2021/12/13 01:14:38;;;;;;;2.37;1.70;;;;;;;;;;5074525;28;20197;-96
2021/12/13 01:17:19;;;;;;;1.73;1.63;;;;;;;;;;5073883;28;20197;-96
2021/12/13 01:19:51;;;;;;;1.60;1.50;;;;;;;;;;5073841;28;20197;-96
2021/12/13 01:22:40;;;;;;;2.40;2.20;;;;;;;;;;5073923;28;20201;-96
2021/12/13 01:25:21;;;;;;;2.40;2.20;;;;;;;;;;5073660;28;20197;-96
2021/12/13 01:27:53;;;;;;;1.60;1.50;;;;;;;;;;5074042;28;20219;-96
2021/12/13 01:30:23;;;;;;;1.63;1.53;;;;;;;;;;5073760;28;20215;-96
2021/12/13 01:32:56;;;;;;;1.90;1.70;;;;;;;;;;5074567;28;20282;-95
2021/12/13 01:35:26;;;;;;;2.40;1.87;;;;;;;;;;5073986;28;20254;-96
2021/12/13 01:37:55;;;;;;;2.40;2.20;;;;;;;;;;5073920;28;20189;-95
2021/12/13 01:40:27;;;;;;;2.00;1.83;;;;;;;;;;5073766;28;20201;-96
2021/12/13 01:43:00;;;;;;;10.10;6.60;;;;;;;;;;5073624;28;20275;-96
2021/12/13 01:45:29;;;;;;;4.70;4.07;;;;;;;;;;5074180;28;20212;-96
2021/12/13 01:47:58;;;;;;;3.17;2.63;;;;;;;;;;5074293;28;20270;-96
2021/12/13 01:50:31;;;;;;;2.60;2.40;;;;;;;;;;5073808;28;20204;-95
2021/12/13 01:53:01;;;;;;;2.30;2.10;;;;;;;;;;5073571;28;20248;-96
2021/12/13 01:55:34;;;;;;;2.20;2.00;;;;;;;;;;5073294;28;20201;-95
2021/12/13 01:58:19;;;;;;;2.10;2.00;;;;;;;;;;5074283;28;20284;-96
2021/12/13 02:03:46;;;;;;;1.93;1.73;;;;;;;;;;5072236;28;20687;-96
2021/12/13 02:06:15;;;;;;;2.40;2.20;;;;;;;;;;5078276;28;20208;-96
2021/12/13 02:08:43;;;;;;;5.93;5.13;;;;;;;;;;5077770;28;20205;-96
2021/12/13 02:11:10;;;;;;;4.53;3.83;;;;;;;;;;5077365;28;20250;-96
2021/12/13 02:13:48;;;;;;;4.47;3.97;;;;;;;;;;5077562;28;20197;-96
2021/12/13 02:19:02;;;;;;;2.43;2.23;;;;;;;;;;5077670;28;20181;-96
2021/12/13 02:21:32;;;;;;;3.07;2.73;;;;;;;;;;5077348;28;20258;-96
2021/12/13 02:24:04;;;;;;;3.40;2.87;;;;;;;;;;5077384;28;20205;-96
2021/12/13 02:26:34;;;;;;;2.67;2.47;;;;;;;;;;5077093;28;20319;-95
2021/12/13 02:29:06;;;;;;;2.43;2.20;;;;;;;;;;5077117;28;20220;-96
2021/12/13 02:31:37;;;;;;;3.33;2.07;;;;;;;;;;5076537;28;20221;-96
2021/12/13 02:34:08;;;;;;;2.03;1.83;;;;;;;;;;5077111;28;20215;-96
2021/12/13 02:36:38;;;;;;;4.67;2.80;;;;;;;;;;5077049;28;20223;-95
2021/12/13 02:39:10;;;;;;;3.43;3.13;;;;;;;;;;5077691;28;20582;-95
2021/12/13 02:41:39;;;;;;;3.37;3.07;;;;;;;;;;5077170;28;20624;-96
2021/12/13 02:44:10;;;;;;;2.40;2.20;;;;;;;;;;5076607;28;20284;-96
2021/12/13 02:46:39;;;;;;;3.57;2.53;;;;;;;;;;5076791;28;20200;-96
2021/12/13 02:49:09;;;;;;;2.70;2.50;;;;;;;;;;5077412;28;20197;-96
2021/12/13 02:51:40;;;;;;;2.50;2.30;;;;;;;;;;5076546;28;20274;-96
2021/12/13 02:54:11;;;;;;;2.93;2.63;;;;;;;;;;5076948;28;20193;-96
2021/12/13 02:56:42;;;;;;;2.63;2.43;;;;;;;;;;5076341;28;20197;-96
2021/12/13 02:59:10;;;;;;;3.10;2.67;;;;;;;;;;5076754;28;20640;-96
2021/12/13 03:01:42;;;;;;;3.67;2.30;;;;;;;;;;5076031;28;20653;-96
2021/12/13 03:04:14;;;;;;;4.23;2.50;;;;;;;;;;5076371;28;20212;-96
2021/12/13 03:06:48;;;;;;;3.43;2.17;;;;;;;;;;5076549;28;20189;-95
2021/12/13 03:09:20;;;;;;;2.30;2.10;;;;;;;;;;5076095;28;20472;-95
2021/12/13 03:11:50;;;;;;;2.63;2.27;;;;;;;;;;5076221;28;20224;-95
2021/12/13 03:14:20;;;;;;;2.47;2.27;;;;;;;;;;5076104;28;20197;-96
2021/12/13 03:16:51;;;;;;;2.50;2.30;;;;;;;;;;5075499;28;20642;-95
2021/12/13 03:19:34;;;;;;;2.93;2.63;;;;;;;;;;5075825;28;20215;-95
2021/12/13 03:22:19;;;;;;;2.50;2.30;;;;;;;;;;5075718;28;20262;-96
2021/12/13 03:25:08;;;;;;;2.67;2.47;;;;;;;;;;5075750;28;20201;-96
2021/12/13 03:27:50;;;;;;;3.17;2.70;;;;;;;;;;5076099;28;20284;-96
2021/12/13 03:30:20;;;;;;;2.43;2.23;;;;;;;;;;5075610;28;20614;-96
2021/12/13 03:32:54;;;;;;;2.30;2.10;;;;;;;;;;5075396;28;20262;-96
2021/12/13 03:35:29;;;;;;;2.07;1.87;;;;;;;;;;5075326;28;20228;-95
2021/12/13 03:37:59;;;;;;;2.20;2.00;;;;;;;;;;5075408;28;20197;-95
2021/12/13 03:40:30;;;;;;;2.97;2.73;;;;;;;;;;5076375;28;20197;-96
2021/12/13 03:43:00;;;;;;;10.77;8.37;;;;;;;;;;5075168;28;20228;-96
2021/12/13 03:45:31;;;;;;;3.47;3.17;;;;;;;;;;5075809;28;21014;-96
2021/12/13 03:48:00;;;;;;;4.87;3.60;;;;;;;;;;5075616;28;20201;-96
2021/12/13 03:50:32;;;;;;;2.00;1.83;;;;;;;;;;5075271;28;20680;-96
2021/12/13 03:53:02;;;;;;;2.67;2.47;;;;;;;;;;5075022;28;20278;-96
2021/12/13 03:55:33;;;;;;;7.70;6.73;;;;;;;;;;5075047;28;20623;-96
2021/12/13 03:58:05;;;;;;;13.47;7.27;;;;;;;;;;5075172;28;20258;-96
2021/12/13 04:00:37;;;;;;;3.77;2.70;;;;;;;;;;5075280;28;20220;-96
2021/12/13 04:03:08;;;;;;;9.67;4.73;;;;;;;;;;5075011;28;20193;-96
2021/12/13 04:05:37;;;;;;;2.63;2.37;;;;;;;;;;5074919;28;20304;-96
2021/12/13 04:08:08;;;;;;;3.03;2.73;;;;;;;;;;5074989;28;20251;-96
2021/12/13 04:10:39;;;;;;;3.20;2.90;;;;;;;;;;5074838;28;20227;-95
2021/12/13 04:13:12;;;;;;;2.20;2.00;;;;;;;;;;5074677;28;20221;-96
2021/12/13 04:15:59;;;;;;;10.90;7.07;;;;;;;;;;5074745;28;20254;-96
2021/12/13 04:18:41;;;;;;;37.67;23.47;;;;;;;;;;5074680;28;20676;-96
2021/12/13 04:21:10;;;;;;;7.17;5.47;;;;;;;;;;5073784;28;20205;-95
2021/12/13 04:23:37;;;;;;;2.10;1.90;;;;;;;;;;5074166;28;20197;-95
2021/12/13 04:26:09;;;;;;;2.67;2.47;;;;;;;;;;5073967;28;20247;-95
2021/12/13 04:28:40;;;;;;;4.13;3.53;;;;;;;;;;5074344;28;20204;-95
2021/12/13 04:31:22;;;;;;;2.60;2.40;;;;;;;;;;5074460;28;20624;-95
2021/12/13 04:33:53;;;;;;;2.20;2.00;;;;;;;;;;5083123;28;20192;-95
2021/12/13 04:36:28;;;;;;;2.63;2.43;;;;;;;;;;5074081;28;20255;-95
2021/12/13 04:38:59;;;;;;;3.23;2.93;;;;;;;;;;5073636;28;20669;-95
2021/12/13 04:41:32;;;;;;;2.60;2.37;;;;;;;;;;5073863;28;20208;-95
2021/12/13 04:44:02;;;;;;;1.93;1.80;;;;;;;;;;5073664;28;20705;-95
2021/12/13 04:46:32;;;;;;;2.13;1.70;;;;;;;;;;5074031;28;20276;-95
2021/12/13 04:49:03;;;;;;;3.53;3.23;;;;;;;;;;5073928;28;20288;-96
2021/12/13 04:51:40;;;;;;;2.50;2.30;;;;;;;;;;5073965;28;20227;-96
2021/12/13 04:54:07;;;;;;;5.30;3.43;;;;;;;;;;5073721;28;20251;-95
2021/12/13 04:56:36;;;;;;;2.53;2.33;;;;;;;;;;5074092;28;20194;-95
2021/12/13 04:59:06;;;;;;;2.40;2.20;;;;;;;;;;5061950;28;20222;-96
2021/12/13 05:01:34;;;;;;;17.07;15.40;;;;;;;;;;5053910;28;20208;-95
2021/12/13 05:04:03;;;;;;;8.73;7.93;;;;;;;;;;5053754;28;20271;-96
2021/12/13 05:06:33;;;;;;;5.07;4.67;;;;;;;;;;5053280;28;20201;-95
2021/12/13 05:09:04;;;;;;;2.70;2.50;;;;;;;;;;5053704;28;20198;-95
2021/12/13 05:11:33;;;;;;;2.17;2.00;;;;;;;;;;5053356;28;20228;-95
2021/12/13 05:14:03;;;;;;;53.20;29.67;;;;;;;;;;5053767;28;20308;-95
2021/12/13 05:16:40;;;;;;;8.03;5.57;;;;;;;;;;5053845;28;20248;-96
2021/12/13 05:19:09;;;;;;;3.47;3.10;;;;;;;;;;5054741;28;20189;-95
2021/12/13 05:21:40;;;;;;;3.40;2.60;;;;;;;;;;5053681;28;20209;-95
2021/12/13 05:24:13;;;;;;;2.83;2.63;;;;;;;;;;5053973;28;20205;-95
2021/12/13 05:26:47;;;;;;;3.03;1.90;;;;;;;;;;5053789;28;20638;-94
2021/12/13 05:29:25;;;;;;;4.67;3.47;;;;;;;;;;5053571;28;20224;-94
2021/12/13 05:31:53;;;;;;;2.60;2.40;;;;;;;;;;5053332;28;20227;-96
2021/12/13 05:34:21;;;;;;;3.00;2.07;;;;;;;;;;5053099;28;20244;-94
2021/12/13 05:36:56;;;;;;;2.30;2.10;;;;;;;;;;5053081;28;20189;-95
2021/12/13 05:39:24;;;;;;;1.57;1.43;;;;;;;;;;5052899;28;20642;-95
2021/12/13 05:41:53;;;;;;;1.83;1.73;;;;;;;;;;5052750;28;20202;-96
2021/12/13 05:44:28;;;;;;;3.23;2.90;;;;;;;;;;5053315;28;20568;-95
2021/12/13 05:46:56;;;;;;;2.43;2.23;;;;;;;;;;5053251;28;20644;-96
2021/12/13 05:49:26;;;;;;;3.00;2.67;;;;;;;;;;5053268;28;20261;-96
2021/12/13 05:51:55;;;;;;;2.53;2.33;;;;;;;;;;5053039;28;20205;-96
2021/12/13 05:54:25;;;;;;;2.27;1.90;;;;;;;;;;5053248;28;20237;-95
2021/12/13 05:56:56;;;;;;;2.57;2.33;;;;;;;;;;5052777;28;20189;-95
2021/12/13 05:59:27;;;;;;;2.37;2.20;;;;;;;;;;5052730;28;20190;-96
2021/12/13 06:02:08;;;;;;;3.13;2.40;;;;;;;;;;5053085;28;20186;-95
2021/12/13 06:04:39;;;;;;;25.13;13.97;;;;;;;;;;5052964;28;20614;-95
2021/12/13 06:07:20;;;;;;;3.87;3.23;;;;;;;;;;5052740;28;20189;-95
2021/12/13 06:09:57;;;;;;;3.90;3.00;;;;;;;;;;5052979;28;20620;-96
2021/12/13 06:12:31;;;;;;;3.83;3.53;;;;;;;;;;5052452;28;20264;-95
2021/12/13 06:15:06;;;;;;;2.27;2.07;;;;;;;;;;5053010;28;20263;-95
2021/12/13 06:17:34;;;;;;;3.93;3.53;;;;;;;;;;5052882;28;20721;-96
2021/12/13 06:20:05;;;;;;;13.63;9.17;;;;;;;;;;5053263;28;20627;-95
2021/12/13 06:22:35;;;;;;;36.53;18.03;;;;;;;;;;5052594;28;20714;-96
2021/12/13 06:25:06;;;;;;;4.00;3.47;;;;;;;;;;5052640;28;20201;-95
2021/12/13 06:27:41;;;;;;;2.83;2.63;;;;;;;;;;5052355;28;20243;-96
2021/12/13 06:30:13;;;;;;;3.17;2.87;;;;;;;;;;5052848;28;20181;-95
2021/12/13 06:32:44;;;;;;;5.40;4.80;;;;;;;;;;5052676;28;20646;-95
2021/12/13 06:35:45;;;;;;;2.70;2.50;;;;;;;;;;5052438;28;20212;-96
2021/12/13 06:38:45;;;;;;;2.87;2.67;;;;;;;;;;5031752;28;20194;-95
2021/12/13 06:41:34;;;;;;;2.53;2.10;;;;;;;;;;5030909;28;20294;-95
2021/12/13 06:44:04;;;;;;;10.30;6.67;;;;;;;;;;5031490;28;20202;-96
2021/12/13 06:46:37;;;;;;;2.70;2.50;;;;;;;;;;5030998;28;20201;-96
2021/12/13 06:49:15;;;;;;;4.23;3.83;;;;;;;;;;5031057;28;20202;-96
2021/12/13 06:51:47;;;;;;;2.50;2.30;;;;;;;;;;5031980;28;20202;-95
2021/12/13 06:54:20;;;;;;;2.97;2.77;;;;;;;;;;5034438;28;20219;-96
2021/12/13 06:56:54;;;;;;;3.70;3.40;;;;;;;;;;5034469;28;20214;-95
2021/12/13 06:59:21;;;;;;;2.60;2.23;;;;;;;;;;5035014;28;20186;-95
2021/12/13 07:02:07;;;;;;;8.87;6.53;;;;;;;;;;5034819;28;20198;-95
2021/12/13 07:04:50;;;;;;;2.10;2.00;;;;;;;;;;5034198;28;20229;-95
2021/12/13 07:07:19;;;;;;;2.47;2.30;;;;;;;;;;5034372;28;20203;-96
2021/12/13 07:09:52;;;;;;;2.20;2.00;;;;;;;;;;5050645;28;20720;-95
2021/12/13 07:12:20;;;;;;;2.10;2.00;;;;;;;;;;5056355;28;20201;-96
2021/12/13 07:14:48;;;;;;;2.70;2.50;;;;;;;;;;5055970;28;20216;-95
2021/12/13 07:17:21;;;;;;;3.10;2.80;;;;;;;;;;5055761;28;20685;-95
2021/12/13 07:19:50;;;;;;;2.77;2.30;;;;;;;;;;5055732;28;20208;-95
2021/12/13 07:22:21;;;;;;;3.33;3.03;;;;;;;;;;5055675;28;20190;-95
2021/12/13 07:24:50;;;;;;;3.10;2.80;;;;;;;;;;5055571;28;20198;-93
2021/12/13 07:27:20;;;;;;;5.40;3.60;;;;;;;;;;5055090;28;20686;-94
2021/12/13 07:29:49;;;;;;;2.93;2.43;;;;;;;;;;5055454;28;20216;-95
2021/12/13 07:32:27;;;;;;;5.43;4.33;;;;;;;;;;5055457;28;20224;-95
2021/12/13 07:34:59;;;;;;;2.90;2.67;;;;;;;;;;5055472;28;20205;-96
2021/12/13 07:37:54;;;;;;;5.80;5.17;;;;;;;;;;5055889;28;20194;-96
2021/12/13 07:40:34;;;;;;;3.93;3.63;;;;;;;;;;5042939;28;20198;-95
2021/12/13 07:43:15;;;;;;;3.07;2.77;;;;;;;;;;5055438;28;20786;-95
2021/12/13 07:45:57;;;;;;;4.30;3.90;;;;;;;;;;5055183;28;20281;-95
2021/12/13 07:48:29;;;;;;;3.33;3.00;;;;;;;;;;5055217;28;20222;-95
2021/12/13 07:51:06;;;;;;;2.77;2.50;;;;;;;;;;5055223;28;20205;-96
2021/12/13 07:53:45;;;;;;;2.10;1.90;;;;;;;;;;5055002;28;20713;-95
2021/12/13 07:56:20;;;;;;;6.60;5.90;;;;;;;;;;5055318;28;20190;-95
2021/12/13 07:58:50;;;;;;;3.03;2.40;;;;;;;;;;5055049;28;20227;-95
2021/12/13 08:01:20;;;;;;;2.70;2.50;;;;;;;;;;5054954;28;20263;-95
2021/12/13 08:03:52;;;;;;;2.60;2.40;;;;;;;;;;5054443;28;20229;-94
2021/12/13 08:06:20;;;;;;;5.73;5.10;;;;;;;;;;5054883;28;20208;-95
2021/12/13 08:08:51;;;;;;;6.90;4.93;;;;;;;;;;5055295;28;20616;-95
2021/12/13 08:11:20;;;;;;;8.90;8.10;;;;;;;;;;5054909;28;20194;-95
2021/12/13 08:13:58;;;;;;;8.43;7.37;;;;;;;;;;5054684;28;20590;-94
2021/12/13 08:16:35;;;;;;;12.37;8.23;;;;;;;;;;5054835;28;20213;-94
2021/12/13 08:19:23;;;;;;;2.77;2.50;;;;;;;;;;5054863;28;20198;-94
2021/12/13 08:21:53;;;;;;;5.27;4.70;;;;;;;;;;5054562;28;20260;-94
2021/12/13 08:24:25;;;;;;;19.90;15.00;;;;;;;;;;5054467;28;20204;-95
2021/12/13 08:27:08;;;;;;;15.73;9.97;;;;;;;;;;5054474;28;20201;-94
2021/12/13 08:29:38;;;;;;;6.10;4.57;;;;;;;;;;5054453;28;20201;-95
2021/12/13 08:32:11;;;;;;;3.10;2.40;;;;;;;;;;5054199;28;20193;-94
2021/12/13 08:34:44;;;;;;;7.03;5.20;;;;;;;;;;5054130;28;20271;-94
2021/12/13 08:37:31;;;;;;;9.67;7.30;;;;;;;;;;5054409;28;20201;-95
2021/12/13 08:40:02;;;;;;;4.40;3.80;;;;;;;;;;5054295;28;20251;-94
2021/12/13 08:42:33;;;;;;;4.83;3.60;;;;;;;;;;5054016;28;20233;-95
2021/12/13 08:45:08;;;;;;;6.23;4.93;;;;;;;;;;5054052;28;20190;-95
2021/12/13 08:47:43;;;;;;;4.40;4.00;;;;;;;;;;5054511;28;20272;-94
2021/12/13 08:50:17;;;;;;;5.10;4.53;;;;;;;;;;5053965;28;20193;-94
2021/12/13 08:52:46;;;;;;;3.00;2.33;;;;;;;;;;5054528;28;20300;-94
2021/12/13 08:55:25;;;;;;;4.73;4.30;;;;;;;;;;5053551;28;20272;-95
2021/12/13 08:57:56;;;;;;;9.37;6.53;;;;;;;;;;5053856;28;20201;-94
2021/12/13 09:00:35;;;;;;;6.87;3.70;;;;;;;;;;5053930;28;20193;-94
2021/12/13 09:03:14;;;;;;;3.83;2.50;;;;;;;;;;5053673;28;20186;-95
2021/12/13 09:05:56;;;;;;;2.90;2.70;;;;;;;;;;5053680;28;20240;-94
2021/12/13 09:08:28;;;;;;;4.77;4.27;;;;;;;;;;5053459;28;20221;-95
2021/12/13 09:10:59;;;;;;;4.57;3.57;;;;;;;;;;5053494;28;20217;-95
2021/12/13 09:13:39;;;;;;;4.83;4.43;;;;;;;;;;5053334;28;20217;-95
2021/12/13 09:16:06;;;;;;;5.43;4.93;;;;;;;;;;5053332;28;20185;-94
2021/12/13 09:18:33;;;;;;;2.60;2.40;;;;;;;;;;5053323;28;20198;-94
2021/12/13 09:21:03;;;;;;;4.53;3.37;;;;;;;;;;5053551;28;20225;-94
2021/12/13 09:23:36;;;;;;;6.17;4.20;;;;;;;;;;5053603;28;20260;-95
2021/12/13 09:26:07;;;;;;;2.80;2.60;;;;;;;;;;5053125;28;20186;-94
2021/12/13 09:28:37;;;;;;;2.60;2.37;;;;;;;;;;5053572;28;20637;-94
2021/12/13 09:31:11;;;;;;;3.03;2.77;;;;;;;;;;5053278;28;20183;-94
2021/12/13 09:33:40;;;;;;;2.80;2.50;;;;;;;;;;5053102;28;20217;-94
2021/12/13 09:36:11;;;;;;;3.83;3.43;;;;;;;;;;5052933;28;20690;-93
2021/12/13 09:38:43;;;;;;;2.73;2.27;;;;;;;;;;5053022;28;20182;-94
2021/12/13 09:41:17;;;;;;;2.20;2.00;;;;;;;;;;5052872;28;20186;-94
2021/12/13 09:43:48;;;;;;;4.77;3.63;;;;;;;;;;5052894;28;20662;-95
2021/12/13 09:46:20;;;;;;;4.93;3.53;;;;;;;;;;5053012;28;20213;-94
2021/12/13 09:48:49;;;;;;;2.93;2.63;;;;;;;;;;5053241;28;20202;-94
2021/12/13 09:51:21;;;;;;;3.10;2.80;;;;;;;;;;5052929;28;20255;-94
2021/12/13 09:53:52;;;;;;;4.60;4.20;;;;;;;;;;5053919;28;20226;-93
2021/12/13 09:56:22;;;;;;;4.23;3.83;;;;;;;;;;5053196;28;20189;-94
2021/12/13 09:58:51;;;;;;;9.03;7.40;;;;;;;;;;5053461;28;20615;-94
2021/12/13 10:01:22;;;;;;;4.87;3.70;;;;;;;;;;5052937;28;20270;-94
2021/12/13 10:03:54;;;;;;;3.43;3.13;;;;;;;;;;5052926;28;20259;-94
2021/12/13 10:06:26;;;;;;;3.97;3.57;;;;;;;;;;5052948;28;20202;-93
2021/12/13 10:08:56;;;;;;;5.27;3.70;;;;;;;;;;5053220;28;20198;-94
2021/12/13 10:11:29;;;;;;;2.90;2.60;;;;;;;;;;5053427;28;20635;-94
2021/12/13 10:13:57;;;;;;;2.70;2.10;;;;;;;;;;5052780;28;20308;-94
2021/12/13 10:16:33;;;;;;;3.10;2.90;;;;;;;;;;5052943;28;20202;-94
2021/12/13 10:19:01;;;;;;;11.07;7.97;;;;;;;;;;5052707;28;20201;-94
2021/12/13 10:21:33;;;;;;;5.73;4.57;;;;;;;;;;5052679;28;20198;-94
2021/12/13 10:24:04;;;;;;;4.00;3.60;;;;;;;;;;5052982;28;20259;-94
2021/12/13 10:26:36;;;;;;;4.87;4.33;;;;;;;;;;5055607;28;20186;-94
2021/12/13 10:29:06;;;;;;;3.73;3.10;;;;;;;;;;5057088;28;20736;-92
2021/12/13 10:31:35;;;;;;;12.50;8.93;;;;;;;;;;5056765;28;20260;-93
2021/12/13 10:34:08;;;;;;;3.50;3.20;;;;;;;;;;5056374;28;20257;-94
2021/12/13 10:36:39;;;;;;;7.93;7.13;;;;;;;;;;5056443;28;20190;-94
2021/12/13 10:39:11;;;;;;;7.43;5.93;;;;;;;;;;5056251;28;20252;-94
2021/12/13 10:41:42;;;;;;;4.00;3.50;;;;;;;;;;5056034;28;20210;-94
2021/12/13 10:44:12;;;;;;;3.10;2.80;;;;;;;;;;5056289;28;20188;-94
2021/12/13 10:46:42;;;;;;;3.77;3.47;;;;;;;;;;5056561;28;20290;-94
2021/12/13 10:49:14;;;;;;;4.33;2.47;;;;;;;;;;5056438;28;20672;-93
2021/12/13 10:51:51;;;;;;;3.73;3.43;;;;;;;;;;5056469;28;20186;-94
2021/12/13 10:54:21;;;;;;;5.00;3.90;;;;;;;;;;5056389;28;20214;-94
2021/12/13 10:56:50;;;;;;;3.17;2.83;;;;;;;;;;5056265;28;20201;-94
2021/12/13 10:59:20;;;;;;;2.53;2.27;;;;;;;;;;5055962;28;20202;-94
2021/12/13 11:01:50;;;;;;;3.50;3.20;;;;;;;;;;5056276;28;20273;-93
2021/12/13 11:04:21;;;;;;;2.70;2.50;;;;;;;;;;5056173;28;20651;-94
2021/12/13 11:06:50;;;;;;;3.33;3.03;;;;;;;;;;5055957;28;20201;-94
2021/12/13 11:09:21;;;;;;;3.37;3.07;;;;;;;;;;5055843;28;20690;-93
2021/12/13 11:11:51;;;;;;;3.47;1.93;;;;;;;;;;5056268;28;20289;-94
2021/12/13 11:14:21;;;;;;;2.97;2.73;;;;;;;;;;5055813;28;20248;-94
2021/12/13 11:16:52;;;;;;;4.80;4.17;;;;;;;;;;5056451;28;20205;-94
2021/12/13 11:19:25;;;;;;;3.10;2.77;;;;;;;;;;5055955;28;20225;-93
2021/12/13 11:22:01;;;;;;;22.03;13.10;;;;;;;;;;5056011;28;20263;-93
2021/12/13 11:24:33;;;;;;;5.97;5.33;;;;;;;;;;5055576;28;20189;-95
2021/12/13 11:27:06;;;;;;;15.27;9.53;;;;;;;;;;5055790;28;20186;-94
2021/12/13 11:29:33;;;;;;;19.27;10.90;;;;;;;;;;5055487;28;20197;-94
2021/12/13 11:32:45;;;;;;;49.53;32.47;;;;;;;;;;5055412;28;20221;-94
2021/12/13 11:35:47;;;;;;;7.00;6.17;;;;;;;;;;5055122;28;20644;-94
2021/12/13 11:38:31;;;;;;;8.63;6.70;;;;;;;;;;5046505;28;20637;-93
2021/12/13 11:41:22;;;;;;;3.30;3.00;;;;;;;;;;5055825;28;20271;-94
2021/12/13 11:44:05;;;;;;;5.90;5.00;;;;;;;;;;5054944;28;20232;-92
2021/12/13 11:47:04;;;;;;;2.90;2.70;;;;;;;;;;5055217;28;20738;-94
2021/12/13 11:49:45;;;;;;;11.20;9.93;;;;;;;;;;5047610;28;20205;-94
2021/12/13 11:52:26;;;;;;;4.40;4.00;;;;;;;;;;5055104;28;20247;-93
2021/12/13 11:55:15;;;;;;;4.70;3.93;;;;;;;;;;5054990;28;20221;-94
2021/12/13 11:57:59;;;;;;;5.37;4.43;;;;;;;;;;5055155;28;20209;-94
2021/12/13 12:00:33;;;;;;;3.60;3.27;;;;;;;;;;5055045;28;20210;-94
2021/12/13 12:03:42;;;;;;;3.07;2.87;;;;;;;;;;5054915;28;20204;-93
2021/12/13 12:06:43;;;;;;;3.33;2.90;;;;;;;;;;5043530;28;20630;-94
2021/12/13 12:09:43;;;;;;;4.23;3.30;;;;;;;;;;5051619;28;20317;-94
2021/12/13 12:12:22;;;;;;;5.63;4.27;;;;;;;;;;5054823;28;20240;-94
2021/12/13 12:14:50;;;;;;;3.60;3.17;;;;;;;;;;5054787;28;20221;-94
2021/12/13 12:17:19;;;;;;;3.80;3.50;;;;;;;;;;5054924;28;20628;-94
2021/12/13 12:19:48;;;;;;;3.67;3.30;;;;;;;;;;5054989;28;20571;-94
2021/12/13 12:22:17;;;;;;;5.53;4.17;;;;;;;;;;5054679;28;20642;-94
2021/12/13 12:24:46;;;;;;;2.57;2.13;;;;;;;;;;5054647;28;20237;-94
2021/12/13 12:27:19;;;;;;;2.60;2.40;;;;;;;;;;5054824;28;20205;-94
2021/12/13 12:29:48;;;;;;;3.10;2.80;;;;;;;;;;5054457;28;20288;-94
2021/12/13 12:32:20;;;;;;;2.20;2.10;;;;;;;;;;5054474;28;20268;-94
2021/12/13 12:34:52;;;;;;;2.40;2.20;;;;;;;;;;5054089;28;20220;-94
2021/12/13 12:38:18;;;;;;;6.90;5.60;;;;;;;;;;5054373;28;20197;-94
2021/12/13 12:40:55;;;;;;;3.70;2.93;;;;;;;;;;5054319;28;20192;-93
2021/12/13 12:43:26;;;;;;;5.23;3.70;;;;;;;;;;5053711;28;20692;-94
2021/12/13 12:45:55;;;;;;;3.00;2.67;;;;;;;;;;5054262;28;20182;-94
2021/12/13 12:48:27;;;;;;;3.07;2.80;;;;;;;;;;5053833;28;20732;-94
2021/12/13 12:51:01;;;;;;;3.87;2.60;;;;;;;;;;5053848;28;20269;-93
2021/12/13 12:53:47;;;;;;;3.67;3.37;;;;;;;;;;5053793;28;20186;-94
2021/12/13 12:56:20;;;;;;;2.77;2.57;;;;;;;;;;5054413;28;20379;-94
2021/12/13 12:58:58;;;;;;;3.03;2.77;;;;;;;;;;5053824;28;20547;-93
2021/12/13 13:01:29;;;;;;;2.40;2.23;;;;;;;;;;5054093;28;20608;-94
2021/12/13 13:04:12;;;;;;;2.23;2.03;;;;;;;;;;5053686;28;20256;-93
2021/12/13 13:06:54;;;;;;;2.53;2.33;;;;;;;;;;5053661;28;20182;-94
2021/12/13 13:09:22;;;;;;;1.90;1.80;;;;;;;;;;5053773;28;20182;-94
2021/12/13 13:11:52;;;;;;;3.60;3.20;;;;;;;;;;5053618;28;20194;-93
2021/12/13 13:14:27;;;;;;;2.50;2.30;;;;;;;;;;5053323;28;20670;-94
2021/12/13 13:16:57;;;;;;;2.80;2.60;;;;;;;;;;5053537;28;20646;-93
2021/12/13 13:19:31;;;;;;;3.57;3.27;;;;;;;;;;5053322;28;20205;-92
2021/12/13 13:22:03;;;;;;;5.40;3.90;;;;;;;;;;5053803;28;20181;-94
2021/12/13 13:24:30;;;;;;;4.10;3.63;;;;;;;;;;5053389;28;20674;-93
2021/12/13 13:26:58;;;;;;;3.27;2.97;;;;;;;;;;5052939;28;20236;-93
2021/12/13 13:29:27;;;;;;;5.87;4.30;;;;;;;;;;5053134;28;20198;-93
2021/12/13 13:31:57;;;;;;;2.50;2.30;;;;;;;;;;5053453;28;20201;-94
2021/12/13 13:34:28;;;;;;;4.77;4.20;;;;;;;;;;5053478;28;20190;-93
2021/12/13 13:36:58;;;;;;;2.80;2.60;;;;;;;;;;5053239;28;20190;-94
2021/12/13 13:39:31;;;;;;;3.40;2.93;;;;;;;;;;5053220;28;20284;-94
2021/12/13 13:42:06;;;;;;;5.80;4.10;;;;;;;;;;5053160;28;20363;-94
2021/12/13 13:44:40;;;;;;;17.83;13.77;;;;;;;;;;5053061;28;20236;-94
2021/12/13 13:47:11;;;;;;;12.83;8.07;;;;;;;;;;5053193;28;20181;-94
2021/12/13 13:49:38;;;;;;;15.87;8.90;;;;;;;;;;5052983;28;20178;-94
2021/12/13 13:52:12;;;;;;;4.27;3.57;;;;;;;;;;5053113;28;20285;-93
2021/12/13 13:54:40;;;;;;;2.63;2.43;;;;;;;;;;5052908;28;20189;-94
2021/12/13 13:57:17;;;;;;;8.30;6.47;;;;;;;;;;5053068;28;20198;-94
2021/12/13 13:59:47;;;;;;;4.23;3.53;;;;;;;;;;5052649;28;20186;-94
2021/12/13 14:02:20;;;;;;;2.73;2.53;;;;;;;;;;5053357;28;20732;-94
2021/12/13 14:04:50;;;;;;;2.80;2.60;;;;;;;;;;5052981;28;20189;-94
2021/12/13 14:07:21;;;;;;;5.90;5.30;;;;;;;;;;5052760;28;20205;-93
2021/12/13 14:09:52;;;;;;;6.63;4.70;;;;;;;;;;5052677;28;20198;-95
2021/12/13 14:12:28;;;;;;;3.10;2.90;;;;;;;;;;5053971;28;20190;-93
2021/12/13 14:15:01;;;;;;;9.03;7.97;;;;;;;;;;5052553;28;20201;-93
2021/12/13 14:17:33;;;;;;;6.43;5.53;;;;;;;;;;5052802;28;20244;-94
2021/12/13 14:20:15;;;;;;;14.67;9.57;;;;;;;;;;5052726;28;20666;-94
2021/12/13 14:22:42;;;;;;;5.93;5.20;;;;;;;;;;5053159;28;20212;-93
2021/12/13 14:25:10;;;;;;;3.90;3.40;;;;;;;;;;5052565;28;20194;-94
2021/12/13 14:27:37;;;;;;;3.33;3.03;;;;;;;;;;5052662;28;20218;-94
2021/12/13 14:30:13;;;;;;;2.40;2.20;;;;;;;;;;5053093;28;20705;-95
2021/12/13 14:32:40;;;;;;;4.00;3.70;;;;;;;;;;5052782;28;20213;-94
2021/12/13 14:35:16;;;;;;;3.40;3.10;;;;;;;;;;5052430;28;20824;-95
2021/12/13 14:37:44;;;;;;;4.80;3.87;;;;;;;;;;5052363;28;20259;-94
2021/12/13 14:40:12;;;;;;;3.53;3.23;;;;;;;;;;5052351;28;20237;-94
2021/12/13 14:42:40;;;;;;;2.60;2.40;;;;;;;;;;5052152;28;20229;-95
2021/12/13 14:45:12;;;;;;;3.30;3.00;;;;;;;;;;5052352;28;20194;-95
2021/12/13 14:47:41;;;;;;;4.37;3.47;;;;;;;;;;5052417;28;20230;-95
2021/12/13 14:50:16;;;;;;;3.70;3.27;;;;;;;;;;5052453;28;20259;-95
2021/12/13 14:52:45;;;;;;;2.87;2.67;;;;;;;;;;5052341;28;20704;-95
2021/12/13 14:55:16;;;;;;;2.70;2.50;;;;;;;;;;5052334;28;20283;-95
2021/12/13 14:57:52;;;;;;;4.23;2.40;;;;;;;;;;5052567;28;20178;-95
2021/12/13 15:00:25;;;;;;;3.93;3.53;;;;;;;;;;5052487;28;20248;-94
2021/12/13 15:02:58;;;;;;;2.97;2.63;;;;;;;;;;5052711;28;20659;-94
2021/12/13 15:05:34;;;;;;;3.50;2.73;;;;;;;;;;5052389;28;20202;-95
2021/12/13 15:08:03;;;;;;;2.47;2.27;;;;;;;;;;5052996;28;20200;-94
2021/12/13 15:10:34;;;;;;;2.90;2.60;;;;;;;;;;5052261;28;20194;-95
2021/12/13 15:13:02;;;;;;;4.97;3.97;;;;;;;;;;5053744;28;20190;-94
2021/12/13 15:15:35;;;;;;;2.73;2.53;;;;;;;;;;5055802;28;20222;-95
2021/12/13 15:18:05;;;;;;;4.93;4.43;;;;;;;;;;5055723;28;20570;-94
2021/12/13 15:20:34;;;;;;;2.97;2.63;;;;;;;;;;5055673;28;20190;-94
2021/12/13 15:23:04;;;;;;;3.50;3.17;;;;;;;;;;5055814;28;20610;-93
2021/12/13 15:25:39;;;;;;;2.90;2.70;;;;;;;;;;5055764;28;20190;-94